Time;durP1;ratioP1;P1;durP2;ratioP2;P2;SDS_P1;SDS_P2;PMS_P1;PMS_P2;Temp;Humidity;BMP_temperature;BMP_pressure;BME280_temperature;BME280_humidity;BME280_pressure;Samples;Min_cycle;Max_cycle;Signal;HPM_P1;HPM_P2
2021/01/31 00:00:42;;;;;;;11.77;6.67;;;;;;;-5.57;100.00;99852.16;4933647;29;20459;-71
2021/01/31 00:03:12;;;;;;;11.60;6.50;;;;;;;-5.57;100.00;99852.16;4935318;29;20232;-71
2021/01/31 00:05:38;;;;;;;10.23;6.43;;;;;;;-5.62;100.00;99857.94;4932706;29;20545;-71
2021/01/31 00:08:07;;;;;;;10.83;6.33;;;;;;;-5.65;100.00;99852.75;4935155;29;20868;-71
2021/01/31 00:10:33;;;;;;;11.07;6.67;;;;;;;-5.67;100.00;99851.88;4940418;29;20459;-71
2021/01/31 00:13:00;;;;;;;12.20;7.10;;;;;;;-5.72;100.00;99859.34;4941356;29;20509;-72
2021/01/31 00:15:28;;;;;;;10.77;6.90;;;;;;;-5.82;100.00;99859.91;4932328;29;20546;-71
2021/01/31 00:17:54;;;;;;;12.67;7.07;;;;;;;-5.92;100.00;99857.13;4949169;28;21134;-73
2021/01/31 00:20:22;;;;;;;12.20;7.20;;;;;;;-5.82;100.00;99863.34;4924397;29;20546;-74
2021/01/31 00:22:48;;;;;;;13.50;6.93;;;;;;;-5.83;100.00;99865.81;4918184;29;20215;-71
2021/01/31 00:25:15;;;;;;;11.17;6.73;;;;;;;-5.79;100.00;99865.06;4932490;29;20552;-71
2021/01/31 00:27:41;;;;;;;12.70;7.07;;;;;;;-5.90;100.00;99860.56;4934239;29;20209;-71
2021/01/31 00:30:11;;;;;;;12.63;7.47;;;;;;;-5.86;100.00;99870.81;4935553;29;20455;-71
2021/01/31 00:32:37;;;;;;;12.00;6.90;;;;;;;-5.84;100.00;99869.16;4929250;29;20226;-71
2021/01/31 00:35:04;;;;;;;11.37;7.20;;;;;;;-5.83;100.00;99860.75;4934192;29;20521;-70
2021/01/31 00:37:31;;;;;;;11.97;6.23;;;;;;;-5.80;100.00;99865.91;4934732;29;20226;-73
2021/01/31 00:39:57;;;;;;;10.23;6.17;;;;;;;-5.92;100.00;99861.34;4935304;29;20490;-72
2021/01/31 00:42:23;;;;;;;9.80;5.80;;;;;;;-5.90;100.00;99868.19;4932354;29;20848;-72
2021/01/31 00:44:50;;;;;;;10.67;6.20;;;;;;;-5.94;100.00;99866.38;4934596;29;20451;-73
2021/01/31 00:47:16;;;;;;;11.37;6.03;;;;;;;-5.93;100.00;99869.78;4939302;29;20239;-70
2021/01/31 00:49:44;;;;;;;9.07;5.87;;;;;;;-5.89;100.00;99863.97;4934688;29;20458;-70
2021/01/31 00:52:11;;;;;;;11.43;6.40;;;;;;;-5.86;100.00;99864.03;4926979;29;20487;-71
2021/01/31 00:54:39;;;;;;;16.60;7.93;;;;;;;-5.97;100.00;99862.94;4933818;29;20488;-71
2021/01/31 00:57:07;;;;;;;13.77;7.77;;;;;;;-6.06;100.00;99865.22;4933270;29;20474;-72
2021/01/31 00:59:34;;;;;;;12.90;7.60;;;;;;;-6.14;100.00;99860.78;4932055;29;21209;-71
2021/01/31 01:02:00;;;;;;;11.80;6.77;;;;;;;-6.15;100.00;99858.19;4937048;29;20475;-71
2021/01/31 01:04:27;;;;;;;12.03;7.40;;;;;;;-6.33;100.00;99855.94;4926328;29;20199;-71
2021/01/31 01:07:03;;;;;;;12.20;6.53;;;;;;;-6.31;100.00;99849.28;4931723;29;20455;-72
2021/01/31 01:09:28;;;;;;;9.03;5.80;;;;;;;-6.39;100.00;99849.03;4933320;29;20512;-72
2021/01/31 01:11:55;;;;;;;13.90;6.77;;;;;;;-6.34;100.00;99851.72;4933088;29;20979;-72
2021/01/31 01:14:21;;;;;;;9.57;5.77;;;;;;;-6.67;100.00;99855.78;4939001;29;20215;-72
2021/01/31 01:16:47;;;;;;;11.50;6.60;;;;;;;-6.67;100.00;99853.25;4935290;29;20470;-72
2021/01/31 01:19:13;;;;;;;13.23;6.03;;;;;;;-6.67;100.00;99863.41;4930773;29;20204;-72
2021/01/31 01:21:39;;;;;;;10.07;6.00;;;;;;;-6.75;100.00;99867.41;4933017;29;20739;-72
2021/01/31 01:24:05;;;;;;;9.23;5.47;;;;;;;-6.74;100.00;99860.63;4930464;29;20462;-71
2021/01/31 01:26:32;;;;;;;11.07;5.83;;;;;;;-6.72;100.00;99871.69;4931043;29;20207;-71
2021/01/31 01:29:00;;;;;;;8.63;5.37;;;;;;;-6.75;100.00;99869.94;4930785;29;20688;-72
2021/01/31 01:31:26;;;;;;;7.50;5.10;;;;;;;-6.80;100.00;99870.59;4933060;29;20824;-72
2021/01/31 01:33:52;;;;;;;10.27;6.30;;;;;;;-6.79;100.00;99864.69;4930823;29;20442;-72
2021/01/31 01:36:19;;;;;;;9.87;5.87;;;;;;;-7.00;100.00;99862.34;4934959;29;20202;-71
2021/01/31 01:38:45;;;;;;;11.00;6.33;;;;;;;-6.96;100.00;99865.03;4927225;29;20447;-70
2021/01/31 01:41:12;;;;;;;11.37;6.43;;;;;;;-6.92;100.00;99863.47;4931194;29;20471;-71
2021/01/31 01:43:38;;;;;;;12.47;6.40;;;;;;;-6.86;100.00;99864.53;4926209;29;20483;-71
2021/01/31 01:46:34;;;;;;;11.10;6.27;;;;;;;-6.69;100.00;99859.97;4933260;29;20482;-71
2021/01/31 01:49:04;;;;;;;13.17;6.83;;;;;;;-6.57;100.00;99851.03;4936824;29;20668;-71
2021/01/31 01:51:36;;;;;;;9.50;6.20;;;;;;;-6.62;100.00;99850.88;4936511;28;20514;-72
2021/01/31 01:54:03;;;;;;;11.47;6.83;;;;;;;-6.62;100.00;99857.63;4934980;29;20460;-71
2021/01/31 01:56:35;;;;;;;15.70;7.90;;;;;;;-6.72;100.00;99864.06;4938610;29;20529;-72
2021/01/31 01:59:02;;;;;;;20.67;9.03;;;;;;;-6.63;100.00;99858.44;4932992;29;20458;-71
2021/01/31 02:01:30;;;;;;;12.23;7.17;;;;;;;-6.48;100.00;99852.16;4948805;28;20469;-71
2021/01/31 02:03:58;;;;;;;16.30;8.40;;;;;;;-6.38;100.00;99857.53;4934707;29;20912;-72
2021/01/31 02:06:26;;;;;;;22.17;8.73;;;;;;;-6.45;100.00;99858.13;4937858;29;20938;-72
2021/01/31 02:08:55;;;;;;;14.23;8.60;;;;;;;-6.41;100.00;99863.34;4937800;29;20452;-72
2021/01/31 02:11:22;;;;;;;15.57;8.33;;;;;;;-6.45;100.00;99860.66;4936999;29;20902;-71
2021/01/31 02:13:54;;;;;;;19.20;8.93;;;;;;;-6.48;100.00;99861.44;4937917;29;20459;-72
2021/01/31 02:16:26;;;;;;;18.70;9.10;;;;;;;-6.35;100.00;99866.09;4935971;29;20470;-72
2021/01/31 02:19:05;;;;;;;15.73;9.07;;;;;;;-6.47;100.00;99864.03;4934602;29;20458;-72
2021/01/31 02:22:12;;;;;;;18.50;9.20;;;;;;;-6.44;100.00;99870.00;4929824;29;20443;-72
2021/01/31 02:25:01;;;;;;;22.63;9.33;;;;;;;-6.45;100.00;99864.06;4935044;29;20461;-72
2021/01/31 02:27:59;;;;;;;16.37;8.97;;;;;;;-6.44;100.00;99865.78;4929849;29;20465;-72
2021/01/31 02:30:52;;;;;;;14.03;8.13;;;;;;;-6.43;100.00;99864.97;4935824;29;20474;-72
2021/01/31 02:33:42;;;;;;;18.13;8.57;;;;;;;-6.30;100.00;99866.19;4934260;29;20547;-71
2021/01/31 02:36:13;;;;;;;16.77;8.50;;;;;;;-6.28;100.00;99862.03;4933577;29;20987;-72
2021/01/31 02:38:45;;;;;;;18.77;8.03;;;;;;;-6.30;100.00;99867.09;4940445;29;20501;-72
2021/01/31 02:41:17;;;;;;;13.67;7.13;;;;;;;-6.18;100.00;99869.09;4937589;29;20476;-73
2021/01/31 02:43:49;;;;;;;13.33;6.93;;;;;;;-6.20;100.00;99868.19;4933880;29;20507;-72
2021/01/31 02:46:23;;;;;;;13.17;7.27;;;;;;;-6.29;100.00;99873.00;4930587;29;20481;-72
2021/01/31 02:48:54;;;;;;;10.63;6.33;;;;;;;-6.22;100.00;99877.44;4940518;29;20496;-72
2021/01/31 02:51:25;;;;;;;18.40;8.93;;;;;;;-6.17;100.00;99870.84;4933456;29;20466;-72
2021/01/31 02:53:57;;;;;;;19.00;9.13;;;;;;;-6.16;100.00;99869.16;4931939;29;20470;-72
2021/01/31 02:56:28;;;;;;;17.63;9.07;;;;;;;-6.20;100.00;99870.72;4933577;29;20451;-72
2021/01/31 02:59:02;;;;;;;21.60;10.40;;;;;;;-6.25;100.00;99874.81;4931017;29;20474;-72
2021/01/31 03:01:35;;;;;;;22.90;9.40;;;;;;;-6.18;100.00;99875.84;4930448;29;20490;-72
2021/01/31 03:04:06;;;;;;;23.87;10.27;;;;;;;-6.36;100.00;99879.56;4937845;29;20484;-71
2021/01/31 03:06:40;;;;;;;17.53;8.43;;;;;;;-6.33;100.00;99874.59;4944975;28;20983;-71
2021/01/31 03:09:13;;;;;;;21.07;9.90;;;;;;;-6.33;100.00;99879.66;4931193;29;20855;-72
2021/01/31 03:11:44;;;;;;;21.27;9.37;;;;;;;-6.31;100.00;99890.72;4933595;29;20518;-71
2021/01/31 03:14:15;;;;;;;17.00;8.77;;;;;;;-6.25;100.00;99881.56;4916933;29;20496;-73
2021/01/31 03:16:45;;;;;;;19.80;8.83;;;;;;;-6.23;100.00;99877.41;4934623;29;20891;-72
2021/01/31 03:19:17;;;;;;;14.47;7.00;;;;;;;-6.13;100.00;99882.78;4933397;29;20459;-70
2021/01/31 03:21:47;;;;;;;16.53;8.20;;;;;;;-6.17;100.00;99878.44;4936003;29;20908;-71
2021/01/31 03:24:20;;;;;;;15.67;7.63;;;;;;;-6.12;100.00;99879.44;4932605;29;21143;-72
2021/01/31 03:26:51;;;;;;;20.43;8.77;;;;;;;-5.94;100.00;99874.00;4929775;29;20459;-72
2021/01/31 03:29:18;;;;;;;17.03;8.27;;;;;;;-5.94;100.00;99881.63;4939909;29;20489;-71
2021/01/31 03:31:48;;;;;;;16.23;8.70;;;;;;;-5.93;100.00;99885.00;4932001;28;20533;-72
2021/01/31 03:34:19;;;;;;;12.07;6.47;;;;;;;-5.88;100.00;99880.91;4937168;29;20465;-71
2021/01/31 03:36:49;;;;;;;14.33;6.67;;;;;;;-5.84;100.00;99890.38;4935798;29;20519;-72
2021/01/31 03:39:16;;;;;;;16.03;7.67;;;;;;;-5.86;100.00;99896.19;4931888;29;20470;-69
2021/01/31 03:41:42;;;;;;;18.40;7.13;;;;;;;-5.88;100.00;99896.16;4931231;29;20565;-73
2021/01/31 03:44:08;;;;;;;11.47;6.53;;;;;;;-5.82;100.00;99898.00;4932829;29;20459;-71
2021/01/31 03:46:37;;;;;;;13.03;6.40;;;;;;;-5.77;100.00;99891.38;4935187;29;20876;-73
2021/01/31 03:49:09;;;;;;;15.50;7.20;;;;;;;-5.72;100.00;99905.06;4934768;29;20198;-72
2021/01/31 03:51:37;;;;;;;14.47;7.03;;;;;;;-5.75;100.00;99903.31;4931595;29;20550;-72
2021/01/31 03:54:04;;;;;;;12.30;6.43;;;;;;;-5.75;100.00;99905.84;4931515;29;20470;-73
2021/01/31 03:56:37;;;;;;;11.87;5.60;;;;;;;-5.68;100.00;99908.53;4934495;29;20475;-71
2021/01/31 03:59:34;;;;;;;11.60;6.03;;;;;;;-5.68;100.00;99906.88;4936561;29;20470;-72
2021/01/31 04:02:01;;;;;;;15.20;7.43;;;;;;;-5.64;100.00;99916.31;4929965;29;20480;-73
2021/01/31 04:04:33;;;;;;;12.07;5.40;;;;;;;-5.57;100.00;99915.66;4931453;29;20470;-72
2021/01/31 04:07:04;;;;;;;15.07;6.97;;;;;;;-5.62;100.00;99914.66;4932460;29;20489;-73
2021/01/31 04:09:33;;;;;;;15.43;6.93;;;;;;;-5.66;100.00;99915.41;4932171;29;20465;-71
2021/01/31 04:12:03;;;;;;;11.27;5.83;;;;;;;-5.65;100.00;99914.56;4935725;29;20475;-73
2021/01/31 04:14:34;;;;;;;11.97;5.60;;;;;;;-5.60;100.00;99917.25;4931618;29;20468;-71
2021/01/31 04:17:00;;;;;;;8.53;5.03;;;;;;;-5.61;100.00;99920.59;4933624;29;20478;-71
2021/01/31 04:19:26;;;;;;;15.17;6.70;;;;;;;-5.56;100.00;99917.41;4931009;29;20605;-72
2021/01/31 04:21:52;;;;;;;13.70;6.17;;;;;;;-5.52;100.00;99915.78;4944845;28;20250;-72
2021/01/31 04:24:19;;;;;;;9.27;5.77;;;;;;;-5.54;100.00;99920.81;4930091;29;20231;-72
2021/01/31 04:26:45;;;;;;;10.53;6.70;;;;;;;-5.51;100.00;99910.72;4934461;29;20205;-71
2021/01/31 04:29:11;;;;;;;13.77;6.47;;;;;;;-5.52;100.00;99914.09;4937451;29;20468;-72
2021/01/31 04:31:37;;;;;;;12.03;6.13;;;;;;;-5.47;100.00;99923.53;4927519;29;20217;-71
2021/01/31 04:34:03;;;;;;;10.07;6.23;;;;;;;-5.50;100.00;99916.69;4935765;29;20459;-72
2021/01/31 04:36:29;;;;;;;11.27;5.53;;;;;;;-5.52;100.00;99923.41;4929925;29;20214;-71
2021/01/31 04:38:56;;;;;;;10.90;5.37;;;;;;;-5.51;100.00;99915.81;4935822;29;20226;-71
2021/01/31 04:41:29;;;;;;;13.43;6.77;;;;;;;-5.39;100.00;99916.97;4932541;29;20465;-73
2021/01/31 04:43:55;;;;;;;10.00;5.63;;;;;;;-5.42;100.00;99912.66;4931680;29;20487;-72
2021/01/31 04:46:23;;;;;;;10.60;5.63;;;;;;;-5.46;100.00;99921.03;4933949;29;21138;-73
2021/01/31 04:49:02;;;;;;;11.23;4.83;;;;;;;-5.46;100.00;99915.94;4933588;29;20208;-72
2021/01/31 04:51:38;;;;;;;9.97;5.40;;;;;;;-5.43;100.00;99920.25;4931208;29;20469;-71
2021/01/31 04:54:19;;;;;;;10.10;5.17;;;;;;;-5.36;100.00;99919.59;4918685;29;20481;-72
2021/01/31 04:57:12;;;;;;;11.63;6.10;;;;;;;-5.43;100.00;99926.19;4930236;29;20486;-72
2021/01/31 04:59:42;;;;;;;16.67;6.43;;;;;;;-5.44;100.00;99913.44;4919841;29;20478;-72
2021/01/31 05:02:13;;;;;;;13.97;5.80;;;;;;;-5.37;100.00;99920.41;4931561;29;20484;-71
2021/01/31 05:04:54;;;;;;;12.60;6.13;;;;;;;-5.42;100.00;99927.06;4939069;29;20515;-72
2021/01/31 05:07:24;;;;;;;12.83;5.43;;;;;;;-5.37;100.00;99925.50;4925173;29;20956;-71
2021/01/31 05:09:50;;;;;;;14.23;6.27;;;;;;;-5.39;100.00;99924.59;4930114;29;20845;-72
2021/01/31 05:12:23;;;;;;;11.60;5.40;;;;;;;-5.41;100.00;99927.09;4933461;29;20500;-72
2021/01/31 05:15:08;;;;;;;9.50;5.13;;;;;;;-5.47;100.00;99934.56;4927298;29;20470;-72
2021/01/31 05:17:34;;;;;;;11.20;6.03;;;;;;;-5.35;100.00;99918.78;4932696;29;20482;-72
2021/01/31 05:20:03;;;;;;;12.57;6.40;;;;;;;-5.39;100.00;99922.06;4933867;29;20466;-72
2021/01/31 05:22:33;;;;;;;11.43;4.97;;;;;;;-5.32;100.00;99922.25;4930764;29;20486;-72
2021/01/31 05:25:00;;;;;;;12.47;6.03;;;;;;;-5.40;100.00;99928.84;4940932;28;20454;-72
2021/01/31 05:27:29;;;;;;;13.20;5.90;;;;;;;-5.40;100.00;99922.88;4934365;29;20494;-72
2021/01/31 05:29:55;;;;;;;10.70;5.27;;;;;;;-5.41;100.00;99927.09;4937307;29;20535;-72
2021/01/31 05:32:21;;;;;;;10.97;5.87;;;;;;;-5.42;100.00;99935.53;4933847;29;20478;-72
2021/01/31 05:34:50;;;;;;;10.87;6.10;;;;;;;-5.47;100.00;99931.16;4937692;29;20206;-72
2021/01/31 05:37:19;;;;;;;10.77;5.40;;;;;;;-5.53;100.00;99935.22;4938899;29;20215;-72
2021/01/31 05:39:47;;;;;;;9.17;4.80;;;;;;;-5.52;100.00;99936.97;4934933;29;20457;-72
2021/01/31 05:42:17;;;;;;;12.30;5.40;;;;;;;-5.57;100.00;99940.22;4940282;29;20489;-72
2021/01/31 05:44:56;;;;;;;10.83;5.03;;;;;;;-5.54;100.00;99937.72;4949391;28;20468;-72
2021/01/31 05:47:24;;;;;;;11.00;5.70;;;;;;;-5.55;100.00;99939.41;4939767;29;20451;-72
2021/01/31 05:49:53;;;;;;;10.37;5.20;;;;;;;-5.49;100.00;99933.63;4939375;29;20564;-72
2021/01/31 05:52:32;;;;;;;11.20;5.23;;;;;;;-5.53;100.00;99942.00;4936773;29;20984;-72
2021/01/31 05:54:58;;;;;;;10.50;5.47;;;;;;;-5.58;100.00;99939.31;4935546;29;20973;-72
2021/01/31 05:57:27;;;;;;;11.97;5.87;;;;;;;-5.59;100.00;99944.38;4934918;29;21013;-72
2021/01/31 05:59:55;;;;;;;11.60;5.30;;;;;;;-5.62;100.00;99945.16;4934498;29;20475;-72
2021/01/31 06:02:23;;;;;;;12.67;5.33;;;;;;;-5.56;100.00;99947.00;4933698;29;20519;-72
2021/01/31 06:05:09;;;;;;;12.70;5.30;;;;;;;-5.61;100.00;99946.00;4935367;29;20470;-72
2021/01/31 06:07:38;;;;;;;12.07;5.70;;;;;;;-5.59;100.00;99942.69;4944523;29;21143;-72
2021/01/31 06:10:09;;;;;;;15.13;6.77;;;;;;;-5.49;100.00;99953.13;4928615;29;20967;-72
2021/01/31 06:12:35;;;;;;;9.80;5.10;;;;;;;-5.60;100.00;99948.59;4940895;28;20478;-72
2021/01/31 06:15:07;;;;;;;13.70;6.37;;;;;;;-5.72;100.00;99946.59;4934869;29;20482;-72
2021/01/31 06:17:34;;;;;;;15.10;5.27;;;;;;;-5.87;100.00;99956.28;4941345;29;20615;-72
2021/01/31 06:20:05;;;;;;;12.57;5.67;;;;;;;-5.84;100.00;99958.03;4934035;29;20534;-72
2021/01/31 06:22:39;;;;;;;13.90;6.37;;;;;;;-5.81;100.00;99959.00;4939979;28;20470;-72
2021/01/31 06:25:08;;;;;;;11.60;5.37;;;;;;;-5.79;100.00;99961.56;4935674;29;20470;-72
2021/01/31 06:27:36;;;;;;;10.77;5.47;;;;;;;-5.75;100.00;99958.31;4935223;29;20819;-72
2021/01/31 06:30:18;;;;;;;11.63;5.50;;;;;;;-5.78;100.00;99966.72;4935348;29;20824;-72
2021/01/31 06:32:46;;;;;;;10.80;5.10;;;;;;;-5.83;100.00;99968.25;4936534;29;21042;-72
2021/01/31 06:35:15;;;;;;;10.57;5.37;;;;;;;-5.86;100.00;99969.84;4939435;29;20463;-72
2021/01/31 06:37:53;;;;;;;8.97;5.20;;;;;;;-5.95;100.00;99978.03;4936017;28;20493;-72
2021/01/31 06:40:29;;;;;;;10.67;6.07;;;;;;;-5.92;100.00;99976.44;4935899;29;20467;-72
2021/01/31 06:43:04;;;;;;;11.17;5.83;;;;;;;-5.83;100.00;99975.00;4937700;28;21021;-72
2021/01/31 06:45:35;;;;;;;15.40;8.43;;;;;;;-5.85;100.00;99976.66;4932723;29;20489;-72
2021/01/31 06:48:12;;;;;;;14.20;7.20;;;;;;;-5.81;100.00;99988.59;4933423;29;20454;-72
2021/01/31 06:50:51;;;;;;;9.80;5.53;;;;;;;-5.97;100.00;99988.19;4935688;29;20470;-72
2021/01/31 06:53:26;;;;;;;10.37;5.03;;;;;;;-5.94;100.00;99990.78;4939784;29;20833;-72
2021/01/31 06:56:15;;;;;;;10.23;5.43;;;;;;;-5.81;100.00;99984.38;4935799;29;20477;-72
2021/01/31 06:59:06;;;;;;;9.80;5.27;;;;;;;-5.91;100.00;99982.38;4953232;28;20498;-72
2021/01/31 07:01:46;;;;;;;12.07;5.63;;;;;;;-5.86;100.00;99983.38;4932413;29;20475;-72
2021/01/31 07:04:50;;;;;;;14.93;9.27;;;;;;;-5.86;100.00;99978.31;4933635;29;20990;-72
2021/01/31 07:07:42;;;;;;;10.20;5.93;;;;;;;-5.91;100.00;99993.41;4923394;29;20468;-72
2021/01/31 07:10:23;;;;;;;7.93;4.20;;;;;;;-6.04;100.00;99990.50;4942647;29;20462;-72
2021/01/31 07:13:03;;;;;;;7.47;4.10;;;;;;;-6.00;100.00;99993.16;4932647;29;20478;-72
2021/01/31 07:15:37;;;;;;;10.70;4.73;;;;;;;-6.06;100.00;99998.06;4933071;29;20443;-72
2021/01/31 07:18:10;;;;;;;7.27;4.60;;;;;;;-6.14;100.00;100004.56;4936013;29;20475;-72
2021/01/31 07:20:43;;;;;;;6.53;3.20;;;;;;;-6.22;100.00;99996.72;4936657;29;20520;-72
2021/01/31 07:23:13;;;;;;;5.53;4.10;;;;;;;-6.18;100.00;99998.53;4929165;29;21016;-72
2021/01/31 07:25:42;;;;;;;7.77;4.10;;;;;;;-6.15;100.00;100010.47;4932748;29;20466;-72
2021/01/31 07:28:14;;;;;;;6.37;3.17;;;;;;;-6.24;100.00;100003.44;4930016;29;20470;-72
2021/01/31 07:30:44;;;;;;;7.93;3.40;;;;;;;-6.24;100.00;100005.97;4937614;29;20809;-72
2021/01/31 07:33:15;;;;;;;6.60;3.30;;;;;;;-6.25;100.00;100005.91;4934137;28;20886;-72
2021/01/31 07:35:54;;;;;;;5.67;3.30;;;;;;;-6.17;100.00;100009.56;4935597;29;20474;-72
2021/01/31 07:38:26;;;;;;;7.27;4.10;;;;;;;-6.07;100.00;100010.69;4932919;29;20491;-72
2021/01/31 07:40:54;;;;;;;8.37;3.90;;;;;;;-6.10;100.00;100009.78;4939133;29;20464;-72
2021/01/31 07:43:24;;;;;;;6.93;4.30;;;;;;;-6.01;100.00;100014.28;4934122;28;20555;-72
2021/01/31 07:45:56;;;;;;;9.30;5.13;;;;;;;-6.05;100.00;100016.69;4933547;29;20458;-72
2021/01/31 07:48:39;;;;;;;16.97;6.07;;;;;;;-5.96;100.00;100011.88;4930210;29;20467;-72
2021/01/31 07:51:06;;;;;;;8.27;4.00;;;;;;;-6.13;100.00;100017.31;4934286;29;20971;-71
2021/01/31 07:53:35;;;;;;;8.27;4.53;;;;;;;-6.27;100.00;100008.41;4930435;29;20866;-72
2021/01/31 07:56:25;;;;;;;7.20;3.87;;;;;;;-6.26;100.00;100005.06;4939403;29;20462;-72
2021/01/31 07:58:52;;;;;;;5.27;3.27;;;;;;;-6.24;100.00;100016.13;4934536;29;20487;-72
2021/01/31 08:01:48;;;;;;;6.40;3.67;;;;;;;-6.25;100.00;100006.75;4932690;29;20858;-72
2021/01/31 08:04:46;;;;;;;6.40;3.53;;;;;;;-6.27;100.00;100000.78;4929491;29;20483;-72
2021/01/31 08:07:32;;;;;;;6.60;3.43;;;;;;;-6.31;100.00;100011.66;4937327;29;20454;-72
2021/01/31 08:09:58;;;;;;;8.10;4.07;;;;;;;-6.26;100.00;100004.19;4933022;29;20455;-72
2021/01/31 08:13:00;;;;;;;7.03;3.23;;;;;;;-6.19;100.00;100006.97;4938409;29;20488;-72
2021/01/31 08:15:40;;;;;;;8.10;4.03;;;;;;;-6.23;100.00;100009.34;4929693;29;20494;-72
2021/01/31 08:18:16;;;;;;;9.27;4.90;;;;;;;-6.25;100.00;100011.84;4934019;29;20467;-72
2021/01/31 08:20:48;;;;;;;8.90;5.00;;;;;;;-6.13;100.00;100009.69;4929373;29;20479;-72
2021/01/31 08:23:43;;;;;;;10.33;4.83;;;;;;;-6.03;100.00;100013.38;4930108;29;21013;-72
2021/01/31 08:26:09;;;;;;;6.33;3.77;;;;;;;-6.24;100.00;100005.97;4933854;29;20880;-72
2021/01/31 08:28:36;;;;;;;7.73;4.57;;;;;;;-6.26;100.00;100010.13;4939334;29;20491;-72
2021/01/31 08:31:14;;;;;;;7.93;4.07;;;;;;;-6.23;100.00;100014.44;4932460;29;20956;-72
2021/01/31 08:33:41;;;;;;;11.43;5.73;;;;;;;-6.11;100.00;100012.28;4929264;29;20483;-72
2021/01/31 08:36:11;;;;;;;12.77;6.67;;;;;;;-6.23;100.00;100015.28;4934872;29;20478;-71
2021/01/31 08:38:41;;;;;;;7.77;4.73;;;;;;;-6.29;100.00;100015.09;4935383;29;20479;-72
2021/01/31 08:41:30;;;;;;;9.23;5.40;;;;;;;-6.03;100.00;100015.94;4946584;28;20474;-72
2021/01/31 08:43:58;;;;;;;7.23;3.70;;;;;;;-5.90;100.00;100012.91;4934176;29;20570;-72
2021/01/31 08:46:26;;;;;;;8.17;4.40;;;;;;;-6.04;100.00;100009.13;4932590;29;20853;-72
2021/01/31 08:48:53;;;;;;;12.83;5.63;;;;;;;-6.09;100.00;100010.66;4930871;29;21085;-72
2021/01/31 08:51:24;;;;;;;10.57;5.50;;;;;;;-6.22;100.00;100011.09;4932560;29;20549;-72
2021/01/31 08:54:06;;;;;;;11.43;5.80;;;;;;;-5.94;100.00;100021.25;4930299;29;20466;-72
2021/01/31 08:56:35;;;;;;;7.80;4.97;;;;;;;-6.02;100.00;100021.84;4928057;29;20465;-72
2021/01/31 08:59:02;;;;;;;11.73;5.43;;;;;;;-6.13;100.00;100016.44;4932626;29;20500;-72
2021/01/31 09:01:28;;;;;;;6.70;4.40;;;;;;;-5.88;100.00;100019.72;4935170;28;20489;-72
2021/01/31 09:03:54;;;;;;;9.63;4.30;;;;;;;-5.76;100.00;100020.94;4931594;29;20471;-72
2021/01/31 09:06:21;;;;;;;16.03;6.43;;;;;;;-5.99;100.00;100029.56;4935684;29;20463;-72
2021/01/31 09:08:53;;;;;;;11.67;6.27;;;;;;;-6.20;99.34;100029.75;4930531;29;20462;-72
2021/01/31 09:11:22;;;;;;;16.97;6.80;;;;;;;-6.07;100.00;100015.78;4930828;29;20519;-72
2021/01/31 09:13:48;;;;;;;16.57;6.43;;;;;;;-6.17;99.29;100015.50;4933425;29;20517;-72
2021/01/31 09:16:18;;;;;;;29.10;11.30;;;;;;;-6.17;99.28;100015.50;4932545;29;20459;-72
2021/01/31 09:18:44;;;;;;;15.43;5.73;;;;;;;-5.97;100.00;100012.72;4930242;29;20937;-72
2021/01/31 09:21:27;;;;;;;10.53;4.87;;;;;;;-6.00;99.75;100021.06;4933737;29;20466;-72
2021/01/31 09:23:58;;;;;;;16.40;6.77;;;;;;;-6.06;98.97;100020.03;4931883;29;20464;-72
2021/01/31 09:26:24;;;;;;;14.50;5.30;;;;;;;-6.12;98.63;100029.19;4930610;29;21066;-72
2021/01/31 09:28:50;;;;;;;7.07;4.30;;;;;;;-6.10;98.81;100025.03;4930955;29;20971;-72
2021/01/31 09:31:17;;;;;;;10.00;4.47;;;;;;;-5.78;100.00;100019.19;4931270;29;20490;-72
2021/01/31 09:33:44;;;;;;;8.70;4.90;;;;;;;-5.79;100.00;100015.75;4932886;29;20508;-72
2021/01/31 09:36:18;;;;;;;8.77;5.07;;;;;;;-5.81;100.00;100019.09;4932509;29;20840;-72
2021/01/31 09:38:47;;;;;;;9.97;4.13;;;;;;;-5.90;99.26;100014.59;4932918;29;20477;-72
2021/01/31 09:41:15;;;;;;;9.00;4.73;;;;;;;-5.94;98.47;100028.00;4936530;29;20454;-72
2021/01/31 09:43:44;;;;;;;10.93;5.00;;;;;;;-5.90;98.84;100025.59;4930317;28;20999;-72
2021/01/31 09:46:14;;;;;;;9.90;5.00;;;;;;;-5.86;98.56;100029.09;4930482;29;20772;-72
2021/01/31 09:48:40;;;;;;;7.47;4.27;;;;;;;-5.70;99.69;100027.88;4929360;29;20459;-72
2021/01/31 09:51:08;;;;;;;7.47;4.40;;;;;;;-5.64;99.72;100034.84;4932226;29;20993;-72
2021/01/31 09:53:37;;;;;;;11.10;5.27;;;;;;;-5.44;100.00;100022.72;4936152;29;20478;-72
2021/01/31 09:56:06;;;;;;;13.73;5.60;;;;;;;-5.48;100.00;100024.28;4932819;29;20491;-72
2021/01/31 09:58:41;;;;;;;13.23;5.70;;;;;;;-5.53;98.53;100034.31;4928488;29;20482;-72
2021/01/31 10:01:10;;;;;;;7.87;4.63;;;;;;;-5.55;97.82;100028.34;4932832;29;20464;-72
2021/01/31 10:03:36;;;;;;;10.13;4.27;;;;;;;-5.41;98.62;100021.13;4929760;29;20486;-72
2021/01/31 10:06:05;;;;;;;8.90;4.33;;;;;;;-5.35;98.36;100020.41;4938649;28;20483;-72
2021/01/31 10:08:31;;;;;;;65.47;20.57;;;;;;;-5.24;98.52;100018.19;4943848;29;20465;-72
2021/01/31 10:10:57;;;;;;;18.87;10.37;;;;;;;-5.29;97.02;100018.06;4945667;28;20847;-72
2021/01/31 10:13:28;;;;;;;18.70;10.17;;;;;;;-5.13;98.25;100012.59;4945788;28;20314;-72
2021/01/31 10:15:57;;;;;;;17.17;7.27;;;;;;;-4.98;99.52;100016.34;4951306;28;20461;-72
2021/01/31 10:18:29;;;;;;;11.27;7.00;;;;;;;-4.95;99.13;100017.28;4949130;28;20485;-72
2021/01/31 10:21:15;;;;;;;12.77;6.37;;;;;;;-4.87;98.91;100020.06;4950723;28;20461;-72
2021/01/31 10:23:41;;;;;;;8.40;5.47;;;;;;;-4.84;98.56;100015.03;4947953;28;20494;-72
2021/01/31 10:26:12;;;;;;;8.73;5.27;;;;;;;-4.96;96.39;100017.25;4948538;28;20466;-72
2021/01/31 10:28:46;;;;;;;12.67;5.50;;;;;;;-4.87;97.04;100017.53;4949004;28;20454;-72
2021/01/31 10:31:24;;;;;;;10.20;6.50;;;;;;;-4.72;97.77;100017.03;4949301;28;20850;-72
2021/01/31 10:33:51;;;;;;;8.33;4.60;;;;;;;-4.74;96.23;100020.38;4949370;28;20701;-72
2021/01/31 10:36:27;;;;;;;9.77;5.97;;;;;;;-4.64;96.81;100020.66;4951027;28;20466;-72
2021/01/31 10:38:55;;;;;;;10.50;5.73;;;;;;;-4.54;97.66;100018.34;4946658;28;21085;-72
2021/01/31 10:41:21;;;;;;;12.53;6.20;;;;;;;-4.51;97.58;100009.09;4948535;28;20811;-72
2021/01/31 10:43:56;;;;;;;17.33;8.97;;;;;;;-4.49;95.95;100014.22;4949390;28;20513;-72
2021/01/31 10:46:22;;;;;;;12.20;6.47;;;;;;;-4.59;94.66;100013.13;4952700;28;20489;-72
2021/01/31 10:48:47;;;;;;;13.13;7.00;;;;;;;-4.55;95.00;100011.53;4949588;28;20468;-72
2021/01/31 10:51:13;;;;;;;11.33;5.80;;;;;;;-4.43;95.72;100010.16;4949014;28;20196;-72
2021/01/31 10:53:39;;;;;;;16.37;6.93;;;;;;;-4.41;95.50;100005.09;4950988;28;20220;-72
2021/01/31 10:56:06;;;;;;;14.93;8.23;;;;;;;-4.36;95.15;99998.44;4953002;28;20667;-71
2021/01/31 10:58:32;;;;;;;9.93;5.70;;;;;;;-4.29;95.54;99999.44;4951814;28;20234;-72
2021/01/31 11:00:58;;;;;;;10.07;5.67;;;;;;;-4.28;94.94;99996.94;4960268;28;20483;-72
2021/01/31 11:03:24;;;;;;;9.13;5.23;;;;;;;-4.19;95.61;99989.53;4950188;28;20219;-72
2021/01/31 11:05:50;;;;;;;9.37;4.77;;;;;;;-4.22;94.02;99994.53;4952339;28;20470;-72
2021/01/31 11:08:16;;;;;;;9.23;5.47;;;;;;;-4.18;94.34;100001.41;4949001;28;20210;-72
2021/01/31 11:10:42;;;;;;;9.67;5.97;;;;;;;-4.14;93.85;100002.34;4951916;28;20213;-72
2021/01/31 11:13:07;;;;;;;10.27;5.83;;;;;;;-4.13;92.51;99995.56;4951177;28;20311;-72
2021/01/31 11:15:34;;;;;;;9.53;5.60;;;;;;;-4.09;92.49;99995.69;4952505;28;20309;-72
2021/01/31 11:18:00;;;;;;;9.37;5.60;;;;;;;-4.03;92.81;99990.75;4947841;28;20212;-72
2021/01/31 11:20:27;;;;;;;8.67;5.13;;;;;;;-3.91;94.10;99989.28;4951720;28;21038;-72
2021/01/31 11:22:53;;;;;;;9.90;5.80;;;;;;;-3.91;92.87;99989.28;4950660;28;20488;-72
2021/01/31 11:25:19;;;;;;;7.13;4.87;;;;;;;-3.93;91.65;99989.25;4949359;28;21062;-73
2021/01/31 11:27:45;;;;;;;8.23;5.17;;;;;;;-3.95;90.41;99992.59;4949240;28;20288;-72
2021/01/31 11:30:13;;;;;;;10.13;5.93;;;;;;;-3.91;91.32;99985.03;4953076;28;20204;-71
2021/01/31 11:32:39;;;;;;;10.10;5.80;;;;;;;-3.86;91.82;99983.47;4948361;28;20220;-72
2021/01/31 11:35:07;;;;;;;13.63;7.90;;;;;;;-3.79;91.75;99986.16;4950594;28;20465;-72
2021/01/31 11:37:33;;;;;;;9.33;6.57;;;;;;;-3.73;92.12;99986.28;4957907;28;20217;-73